Time;durP1;ratioP1;P1;durP2;ratioP2;P2;SDS_P1;SDS_P2;PMS_P1;PMS_P2;Temp;Humidity;BMP_temperature;BMP_pressure;BME280_temperature;BME280_humidity;BME280_pressure;Samples;Min_cycle;Max_cycle;Signal;HPM_P1;HPM_P2
2022/02/04 00:38:46;;;;;;;13.90;5.20;;;8.00;99.90;;;;;;20791747;28;20057;-46
2022/02/04 01:30:03;;;;;;;11.75;4.65;;;8.00;99.90;;;;;;20782958;28;20555;-46
2022/02/04 01:40:05;;;;;;;10.48;3.97;;;8.00;99.90;;;;;;20735968;28;1357421;-46
2022/02/04 01:50:06;;;;;;;11.57;4.22;;;8.00;99.90;;;;;;20784958;28;20053;-46
2022/02/04 02:00:07;;;;;;;6.97;3.38;;;7.90;99.90;;;;;;20784644;28;20084;-46
2022/02/04 02:10:12;;;;;;;10.77;3.58;;;7.90;99.90;;;;;;20785894;28;20424;-46
2022/02/04 03:01:07;;;;;;;7.07;3.05;;;8.00;99.90;;;;;;20780964;28;20041;-46
2022/02/04 03:11:08;;;;;;;5.85;2.30;;;8.00;99.90;;;;;;20781597;28;20045;-46
2022/02/04 03:21:14;;;;;;;6.38;2.85;;;8.00;99.90;;;;;;20781294;28;20043;-46
2022/02/04 03:31:15;;;;;;;7.95;2.25;;;8.00;99.90;;;;;;20765983;28;20099;-46
2022/02/04 03:41:15;;;;;;;5.68;2.25;;;8.00;99.90;;;;;;20800367;28;20033;-46
2022/02/04 03:51:16;;;;;;;5.13;2.05;;;8.00;99.90;;;;;;20791661;28;20052;-46
2022/02/04 04:01:17;;;;;;;9.15;1.80;;;8.00;99.90;;;;;;20794036;28;20449;-46
2022/02/04 04:11:18;;;;;;;6.38;1.90;;;8.00;99.90;;;;;;20792295;28;20069;-47
2022/02/04 04:21:19;;;;;;;4.25;1.88;;;8.00;99.90;;;;;;20791726;28;20036;-46
2022/02/04 04:31:20;;;;;;;6.23;2.50;;;8.00;99.90;;;;;;20797427;28;20052;-46
2022/02/04 04:41:38;;;;;;;4.10;1.70;;;8.00;99.90;;;;;;20794208;28;20394;-46
2022/02/04 05:32:56;;;;;;;7.65;1.25;;;8.00;99.90;;;;;;20797247;28;20281;-46
2022/02/04 05:43:03;;;;;;;2.80;0.63;;;8.10;99.90;;;;;;20793774;28;20107;-46
2022/02/04 05:53:21;;;;;;;6.73;1.30;;;8.00;99.90;;;;;;20785909;28;20785;-47
2022/02/04 06:23:32;;;;;;;3.03;0.93;;;8.00;99.90;;;;;;20787820;28;20128;-46
2022/02/04 06:33:33;;;;;;;4.82;1.15;;;8.10;99.90;;;;;;20788930;28;20045;-46
2022/02/04 06:43:35;;;;;;;5.25;1.27;;;8.10;99.90;;;;;;20790536;28;20458;-46
2022/02/04 06:53:36;;;;;;;3.22;1.40;;;8.20;99.90;;;;;;20765746;28;20515;-46
2022/02/04 07:03:36;;;;;;;3.87;1.23;;;8.20;99.90;;;;;;20766240;28;20459;-46
2022/02/04 07:23:58;;;;;;;3.78;1.35;;;8.30;99.90;;;;;;20776797;28;20338;-46
2022/02/04 07:34:14;;;;;;;3.03;1.40;;;8.30;99.90;;;;;;20801826;28;20048;-46
2022/02/04 07:44:16;;;;;;;6.75;2.25;;;8.40;99.90;;;;;;20799246;28;20084;-46
2022/02/04 07:54:17;;;;;;;3.70;1.83;;;8.40;99.90;;;;;;20801949;28;20116;-47
2022/02/04 08:04:24;;;;;;;4.95;2.28;;;8.30;99.90;;;;;;20795207;28;20044;-46
2022/02/04 08:55:46;;;;;;;4.63;2.65;;;8.60;99.90;;;;;;20795913;28;20045;-47
2022/02/04 09:05:43;;;;;;;4.03;1.83;;;8.70;99.90;;;;;;20784109;28;20056;-46
2022/02/04 09:26:06;;;;;;;5.00;1.67;;;8.80;99.90;;;;;;20783036;28;20047;-46
2022/02/04 09:36:07;;;;;;;5.82;2.53;;;8.80;99.90;;;;;;20792397;28;20540;-47
2022/02/04 09:46:08;;;;;;;5.68;2.00;;;8.90;99.90;;;;;;20789332;28;20692;-47
2022/02/04 10:07:05;;;;;;;4.95;2.13;;;8.90;99.90;;;;;;20789542;28;20044;-46
2022/02/04 10:27:18;;;;;;;3.00;1.27;;;9.30;99.90;;;;;;20783866;28;20135;-46
2022/02/04 10:37:28;;;;;;;3.95;1.55;;;9.40;99.90;;;;;;20788386;28;20037;-46
2022/02/04 10:47:37;;;;;;;3.22;1.23;;;9.30;99.90;;;;;;20795877;28;20529;-47
2022/02/04 12:00:11;;;;;;;3.85;1.30;;;9.10;99.90;;;;;;20788130;28;20052;-47
2022/02/04 12:10:12;;;;;;;4.10;1.55;;;9.10;99.90;;;;;;20798158;28;20106;-46
2022/02/04 12:20:14;;;;;;;5.70;1.50;;;9.00;99.90;;;;;;20803452;28;20045;-46
2022/02/04 12:30:35;;;;;;;2.00;1.00;;;8.90;99.90;;;;;;20796848;28;20049;-46
2022/02/04 12:40:36;;;;;;;2.83;1.33;;;8.80;99.90;;;;;;20774637;28;20065;-46
2022/02/04 12:50:37;;;;;;;4.60;1.73;;;8.80;99.90;;;;;;20823979;28;20366;-46
2022/02/04 13:02:01;;;;;;;4.75;1.42;;;8.50;99.90;;;;;;20828610;28;20065;-45
2022/02/04 13:11:20;;;;;;;3.75;1.17;;;8.20;99.90;;;;;;20820685;28;20539;-46
2022/02/04 13:21:21;;;;;;;4.85;1.90;;;8.00;99.90;;;;;;20833666;28;20131;-47
2022/02/04 13:31:23;;;;;;;2.55;0.50;;;7.80;99.90;;;;;;20831329;28;20494;-47
2022/02/04 13:42:00;;;;;;;1.95;0.30;;;7.80;99.90;;;;;;20827759;28;20119;-48
2022/02/04 13:52:00;;;;;;;0.13;0.10;;;6.70;99.90;;;;;;20825155;28;20049;-48
2022/02/04 14:02:18;;;;;;;1.73;0.20;;;6.00;99.90;;;;;;20826037;28;20431;-48
2022/02/04 14:12:20;;;;;;;0.10;0.05;;;5.60;99.90;;;;;;20821616;28;20451;-47
2022/02/04 14:22:21;;;;;;;0.30;0.13;;;5.10;99.90;;;;;;20834187;28;20086;-47
2022/02/04 14:32:26;;;;;;;0.75;0.20;;;5.00;99.90;;;;;;20814023;28;20098;-46
2022/02/04 15:03:30;;;;;;;2.28;0.20;;;4.90;99.90;;;;;;20754244;28;20041;-46
2022/02/04 15:13:32;;;;;;;0.77;0.20;;;4.90;99.90;;;;;;20824509;28;20044;-46
2022/02/04 15:23:33;;;;;;;0.88;0.15;;;4.90;99.90;;;;;;20834607;28;20033;-46
2022/02/04 15:33:36;;;;;;;0.10;0.00;;;4.90;99.90;;;;;;20852626;28;20063;-46
2022/02/04 15:43:38;;;;;;;0.15;0.00;;;4.80;99.90;;;;;;20847875;28;20086;-46
2022/02/04 15:53:55;;;;;;;0.08;0.00;;;4.80;99.90;;;;;;20838713;28;20053;-46
2022/02/04 16:04:04;;;;;;;5.47;1.40;;;4.70;99.90;;;;;;20854167;28;20094;-46
2022/02/04 16:14:15;;;;;;;0.75;0.13;;;4.70;99.90;;;;;;20834910;28;20116;-46
2022/02/04 16:24:42;;;;;;;1.08;0.30;;;4.70;99.90;;;;;;20806634;28;20030;-46
2022/02/04 16:34:43;;;;;;;0.90;0.20;;;4.70;99.90;;;;;;20826394;28;20139;-46
2022/02/04 16:44:44;;;;;;;1.13;0.22;;;4.60;99.90;;;;;;20815901;28;20148;-46
2022/02/04 16:54:45;;;;;;;4.25;0.40;;;4.50;99.90;;;;;;20845344;28;20080;-45
2022/02/04 17:04:46;;;;;;;1.35;0.47;;;4.40;99.90;;;;;;20817796;28;20044;-45
2022/02/04 17:14:47;;;;;;;1.70;0.50;;;4.20;99.90;;;;;;20834744;28;20439;-45
2022/02/04 17:24:48;;;;;;;2.70;0.90;;;4.20;99.90;;;;;;20821322;28;20548;-46
2022/02/04 17:34:49;;;;;;;0.95;0.50;;;4.30;99.90;;;;;;20805140;28;20099;-45
2022/02/04 17:44:51;;;;;;;10.50;1.63;;;4.40;99.90;;;;;;20807973;28;20504;-45
2022/02/04 17:55:12;;;;;;;2.95;1.02;;;4.40;99.90;;;;;;20801889;28;20369;-46
2022/02/04 18:15:16;;;;;;;4.18;1.30;;;4.60;99.90;;;;;;20797705;28;20408;-45
2022/02/04 18:25:20;;;;;;;4.38;1.55;;;4.60;99.90;;;;;;20784000;28;20059;-45
2022/02/04 18:35:21;;;;;;;10.27;3.60;;;4.60;99.90;;;;;;20812306;28;20052;-45
2022/02/04 18:45:25;;;;;;;5.55;1.83;;;4.70;99.90;;;;;;20797066;28;20072;-45
2022/02/04 19:06:03;;;;;;;6.30;2.00;;;4.90;99.90;;;;;;20814338;28;20046;-45
2022/02/04 19:16:17;;;;;;;6.97;2.00;;;5.00;99.90;;;;;;20817676;28;20041;-45
2022/02/04 19:26:25;;;;;;;4.07;1.58;;;5.10;99.90;;;;;;20807487;28;20045;-45
2022/02/04 19:36:26;;;;;;;5.20;1.38;;;5.20;99.90;;;;;;20812688;28;20056;-45
2022/02/04 19:46:32;;;;;;;4.07;1.50;;;5.30;99.90;;;;;;20802397;28;20033;-45
2022/02/04 20:27:23;;;;;;;2.35;0.60;;;5.20;99.90;;;;;;20801955;28;20030;-45
2022/02/04 20:37:24;;;;;;;2.00;0.30;;;5.40;99.90;;;;;;20809818;28;20037;-45
2022/02/04 20:47:24;;;;;;;3.97;0.52;;;5.30;99.90;;;;;;20804103;28;20060;-45
2022/02/04 20:57:25;;;;;;;2.20;1.00;;;5.40;99.90;;;;;;20802509;28;20052;-45
2022/02/04 21:07:41;;;;;;;1.95;0.82;;;5.30;99.90;;;;;;20794220;28;20484;-45
2022/02/04 21:17:45;;;;;;;2.22;0.43;;;5.20;99.90;;;;;;20790719;28;20087;-45
2022/02/04 21:27:49;;;;;;;5.72;1.00;;;5.10;99.90;;;;;;20788649;28;20060;-45
2022/02/04 21:37:50;;;;;;;6.65;0.60;;;5.20;99.90;;;;;;20785237;28;20482;-45
2022/02/04 21:47:54;;;;;;;1.15;0.50;;;5.10;99.90;;;;;;20723173;28;20530;-45
2022/02/04 21:57:55;;;;;;;1.60;0.63;;;5.20;99.90;;;;;;20713755;28;20103;-45
2022/02/04 22:07:59;;;;;;;6.55;0.68;;;5.20;99.90;;;;;;20695320;28;20046;-45
2022/02/04 22:28:01;;;;;;;1.35;0.70;;;5.30;99.90;;;;;;20703638;28;20535;-45
2022/02/04 22:58:37;;;;;;;4.90;0.70;;;5.80;99.90;;;;;;20802917;28;20107;-45
2022/02/04 23:08:42;;;;;;;1.33;0.43;;;5.70;99.90;;;;;;20797082;28;20046;-45
2022/02/04 23:18:48;;;;;;;1.77;0.43;;;5.80;99.90;;;;;;20798155;28;20037;-45
2022/02/04 23:29:05;;;;;;;0.20;0.10;;;5.70;99.90;;;;;;20797084;28;20137;-45
